sensor_id;sensor_type;location;lat;lon;timestamp;P1;durP1;ratioP1;P2;durP2;ratioP2
14100;SDS011;7127;49.372;8.166;2024-03-23T00:54:13;3.07;;;1.97;;
14100;SDS011;7127;49.372;8.166;2024-03-23T00:56:40;2.70;;;2.03;;
14100;SDS011;7127;49.372;8.166;2024-03-23T00:59:06;3.67;;;2.30;;
14100;SDS011;7127;49.372;8.166;2024-03-23T01:01:32;2.80;;;2.10;;
14100;SDS011;7127;49.372;8.166;2024-03-23T01:03:58;3.17;;;2.30;;
14100;SDS011;7127;49.372;8.166;2024-03-23T01:06:25;2.70;;;1.87;;
14100;SDS011;7127;49.372;8.166;2024-03-23T01:08:52;2.60;;;2.00;;
14100;SDS011;7127;49.372;8.166;2024-03-23T01:11:19;2.77;;;2.00;;
14100;SDS011;7127;49.372;8.166;2024-03-23T01:13:44;3.30;;;2.37;;
14100;SDS011;7127;49.372;8.166;2024-03-23T01:16:11;3.03;;;1.90;;
14100;SDS011;7127;49.372;8.166;2024-03-23T01:18:37;3.00;;;2.40;;
14100;SDS011;7127;49.372;8.166;2024-03-23T01:21:04;2.53;;;2.20;;
14100;SDS011;7127;49.372;8.166;2024-03-23T01:23:29;2.77;;;2.40;;
14100;SDS011;7127;49.372;8.166;2024-03-23T01:25:57;3.03;;;2.30;;
14100;SDS011;7127;49.372;8.166;2024-03-23T01:28:23;2.37;;;2.17;;
14100;SDS011;7127;49.372;8.166;2024-03-23T01:30:50;2.87;;;2.47;;
14100;SDS011;7127;49.372;8.166;2024-03-23T01:33:19;2.50;;;2.30;;
14100;SDS011;7127;49.372;8.166;2024-03-23T01:35:46;2.70;;;2.50;;
14100;SDS011;7127;49.372;8.166;2024-03-23T01:38:11;3.83;;;2.77;;
14100;SDS011;7127;49.372;8.166;2024-03-23T01:40:38;4.23;;;2.43;;
14100;SDS011;7127;49.372;8.166;2024-03-23T01:43:07;5.17;;;2.50;;
14100;SDS011;7127;49.372;8.166;2024-03-23T01:45:34;3.97;;;2.33;;
14100;SDS011;7127;49.372;8.166;2024-03-23T01:48:00;2.60;;;2.40;;
14100;SDS011;7127;49.372;8.166;2024-03-23T01:50:27;2.53;;;2.33;;
14100;SDS011;7127;49.372;8.166;2024-03-23T01:52:55;4.00;;;2.77;;
14100;SDS011;7127;49.372;8.166;2024-03-23T01:55:23;3.20;;;2.60;;
14100;SDS011;7127;49.372;8.166;2024-03-23T01:57:49;4.57;;;3.10;;
14100;SDS011;7127;49.372;8.166;2024-03-23T02:00:18;3.40;;;2.77;;
14100;SDS011;7127;49.372;8.166;2024-03-23T02:02:44;3.07;;;2.50;;
14100;SDS011;7127;49.372;8.166;2024-03-23T02:05:11;4.87;;;2.60;;
14100;SDS011;7127;49.372;8.166;2024-03-23T02:07:38;3.70;;;2.63;;
14100;SDS011;7127;49.372;8.166;2024-03-23T02:10:06;2.90;;;2.60;;
14100;SDS011;7127;49.372;8.166;2024-03-23T02:12:32;4.47;;;4.00;;
14100;SDS011;7127;49.372;8.166;2024-03-23T02:14:59;4.47;;;3.90;;
14100;SDS011;7127;49.372;8.166;2024-03-23T02:17:26;6.13;;;5.20;;
14100;SDS011;7127;49.372;8.166;2024-03-23T02:19:52;5.07;;;4.27;;
14100;SDS011;7127;49.372;8.166;2024-03-23T02:22:18;5.30;;;4.00;;
14100;SDS011;7127;49.372;8.166;2024-03-23T02:24:46;4.07;;;3.67;;
14100;SDS011;7127;49.372;8.166;2024-03-23T02:27:12;5.17;;;3.70;;
14100;SDS011;7127;49.372;8.166;2024-03-23T02:29:40;5.10;;;4.30;;
14100;SDS011;7127;49.372;8.166;2024-03-23T02:32:06;4.57;;;4.10;;
14100;SDS011;7127;49.372;8.166;2024-03-23T02:34:34;4.33;;;3.47;;
14100;SDS011;7127;49.372;8.166;2024-03-23T02:36:59;6.13;;;4.60;;
14100;SDS011;7127;49.372;8.166;2024-03-23T02:39:26;5.83;;;4.00;;
14100;SDS011;7127;49.372;8.166;2024-03-23T02:41:53;4.17;;;3.67;;
14100;SDS011;7127;49.372;8.166;2024-03-23T02:44:20;4.13;;;3.63;;
14100;SDS011;7127;49.372;8.166;2024-03-23T02:46:46;4.27;;;3.60;;
14100;SDS011;7127;49.372;8.166;2024-03-23T02:49:12;5.70;;;4.07;;
14100;SDS011;7127;49.372;8.166;2024-03-23T02:51:39;4.10;;;3.40;;
14100;SDS011;7127;49.372;8.166;2024-03-23T02:54:06;3.97;;;2.97;;
14100;SDS011;7127;49.372;8.166;2024-03-23T02:56:32;5.10;;;4.60;;
14100;SDS011;7127;49.372;8.166;2024-03-23T02:59:00;5.67;;;4.40;;
14100;SDS011;7127;49.372;8.166;2024-03-23T03:01:26;5.13;;;4.27;;
14100;SDS011;7127;49.372;8.166;2024-03-23T03:03:53;5.90;;;4.93;;
14100;SDS011;7127;49.372;8.166;2024-03-23T03:06:27;8.43;;;5.27;;
14100;SDS011;7127;49.372;8.166;2024-03-23T03:08:56;6.03;;;4.83;;
14100;SDS011;7127;49.372;8.166;2024-03-23T03:11:21;7.13;;;5.00;;
14100;SDS011;7127;49.372;8.166;2024-03-23T03:13:48;7.10;;;5.27;;
14100;SDS011;7127;49.372;8.166;2024-03-23T03:16:15;7.30;;;5.40;;
14100;SDS011;7127;49.372;8.166;2024-03-23T03:18:42;11.10;;;7.07;;
14100;SDS011;7127;49.372;8.166;2024-03-23T03:21:08;9.77;;;6.63;;
14100;SDS011;7127;49.372;8.166;2024-03-23T03:23:36;6.97;;;6.23;;
14100;SDS011;7127;49.372;8.166;2024-03-23T03:26:03;9.37;;;6.90;;
14100;SDS011;7127;49.372;8.166;2024-03-23T03:28:30;7.07;;;5.87;;
14100;SDS011;7127;49.372;8.166;2024-03-23T03:30:56;6.40;;;5.30;;
14100;SDS011;7127;49.372;8.166;2024-03-23T03:33:24;7.17;;;6.10;;
14100;SDS011;7127;49.372;8.166;2024-03-23T03:35:50;6.73;;;5.63;;
14100;SDS011;7127;49.372;8.166;2024-03-23T03:38:18;6.10;;;5.10;;
14100;SDS011;7127;49.372;8.166;2024-03-23T03:40:44;7.83;;;6.10;;
14100;SDS011;7127;49.372;8.166;2024-03-23T03:43:11;8.27;;;5.13;;
14100;SDS011;7127;49.372;8.166;2024-03-23T03:45:36;6.20;;;5.57;;
14100;SDS011;7127;49.372;8.166;2024-03-23T03:48:03;6.50;;;5.80;;
14100;SDS011;7127;49.372;8.166;2024-03-23T03:50:31;8.07;;;5.80;;
14100;SDS011;7127;49.372;8.166;2024-03-23T03:52:57;5.87;;;4.70;;
14100;SDS011;7127;49.372;8.166;2024-03-23T03:55:23;6.00;;;4.93;;
14100;SDS011;7127;49.372;8.166;2024-03-23T03:57:50;5.37;;;4.10;;
14100;SDS011;7127;49.372;8.166;2024-03-23T04:00:16;5.33;;;4.67;;
14100;SDS011;7127;49.372;8.166;2024-03-23T04:02:43;4.80;;;4.23;;
14100;SDS011;7127;49.372;8.166;2024-03-23T04:05:08;5.13;;;4.00;;
14100;SDS011;7127;49.372;8.166;2024-03-23T04:07:36;4.83;;;3.77;;
14100;SDS011;7127;49.372;8.166;2024-03-23T04:10:02;5.33;;;4.30;;
14100;SDS011;7127;49.372;8.166;2024-03-23T04:12:32;5.47;;;4.17;;
14100;SDS011;7127;49.372;8.166;2024-03-23T04:14:58;4.43;;;3.87;;
14100;SDS011;7127;49.372;8.166;2024-03-23T04:17:26;6.23;;;4.67;;
14100;SDS011;7127;49.372;8.166;2024-03-23T04:19:56;4.90;;;4.10;;
14100;SDS011;7127;49.372;8.166;2024-03-23T04:22:23;4.10;;;3.70;;
14100;SDS011;7127;49.372;8.166;2024-03-23T04:24:52;3.97;;;3.43;;
14100;SDS011;7127;49.372;8.166;2024-03-23T04:27:19;4.33;;;3.93;;
14100;SDS011;7127;49.372;8.166;2024-03-23T04:29:46;3.67;;;3.30;;
14100;SDS011;7127;49.372;8.166;2024-03-23T04:32:14;4.07;;;3.50;;
14100;SDS011;7127;49.372;8.166;2024-03-23T04:34:40;3.70;;;3.30;;
14100;SDS011;7127;49.372;8.166;2024-03-23T04:37:06;4.20;;;3.23;;
14100;SDS011;7127;49.372;8.166;2024-03-23T04:39:33;3.30;;;2.97;;
14100;SDS011;7127;49.372;8.166;2024-03-23T04:42:01;3.40;;;3.10;;
14100;SDS011;7127;49.372;8.166;2024-03-23T04:44:29;3.63;;;2.80;;
14100;SDS011;7127;49.372;8.166;2024-03-23T04:46:56;5.37;;;2.80;;
14100;SDS011;7127;49.372;8.166;2024-03-23T04:49:23;2.73;;;2.43;;
14100;SDS011;7127;49.372;8.166;2024-03-23T04:51:49;2.53;;;2.20;;
14100;SDS011;7127;49.372;8.166;2024-03-23T04:54:16;2.33;;;2.10;;
14100;SDS011;7127;49.372;8.166;2024-03-23T04:56:42;2.27;;;1.70;;
14100;SDS011;7127;49.372;8.166;2024-03-23T04:59:10;2.73;;;2.13;;
14100;SDS011;7127;49.372;8.166;2024-03-23T05:01:36;2.27;;;2.03;;
14100;SDS011;7127;49.372;8.166;2024-03-23T05:04:04;3.10;;;2.80;;
14100;SDS011;7127;49.372;8.166;2024-03-23T05:06:30;2.47;;;1.90;;
14100;SDS011;7127;49.372;8.166;2024-03-23T05:08:57;2.07;;;1.70;;
14100;SDS011;7127;49.372;8.166;2024-03-23T05:11:22;1.70;;;1.57;;
14100;SDS011;7127;49.372;8.166;2024-03-23T05:13:49;1.60;;;1.50;;
14100;SDS011;7127;49.372;8.166;2024-03-23T05:16:16;1.60;;;1.50;;
14100;SDS011;7127;49.372;8.166;2024-03-23T05:18:43;1.30;;;1.10;;
14100;SDS011;7127;49.372;8.166;2024-03-23T05:21:09;1.30;;;1.10;;
14100;SDS011;7127;49.372;8.166;2024-03-23T05:23:35;1.27;;;1.17;;
14100;SDS011;7127;49.372;8.166;2024-03-23T05:26:03;1.00;;;1.00;;
14100;SDS011;7127;49.372;8.166;2024-03-23T05:28:30;1.87;;;1.50;;
14100;SDS011;7127;49.372;8.166;2024-03-23T05:30:55;1.93;;;1.47;;
14100;SDS011;7127;49.372;8.166;2024-03-23T05:33:24;1.30;;;1.20;;
14100;SDS011;7127;49.372;8.166;2024-03-23T05:35:56;1.70;;;1.60;;
14100;SDS011;7127;49.372;8.166;2024-03-23T05:38:23;1.20;;;1.10;;
14100;SDS011;7127;49.372;8.166;2024-03-23T05:40:53;1.33;;;1.10;;
14100;SDS011;7127;49.372;8.166;2024-03-23T05:43:20;1.00;;;0.97;;
14100;SDS011;7127;49.372;8.166;2024-03-23T05:45:46;1.00;;;0.90;;
14100;SDS011;7127;49.372;8.166;2024-03-23T05:48:19;0.73;;;0.73;;
14100;SDS011;7127;49.372;8.166;2024-03-23T05:50:46;0.60;;;0.60;;
14100;SDS011;7127;49.372;8.166;2024-03-23T05:53:12;0.73;;;0.60;;
14100;SDS011;7127;49.372;8.166;2024-03-23T05:55:39;0.30;;;0.30;;
14100;SDS011;7127;49.372;8.166;2024-03-23T05:58:06;0.40;;;0.40;;
14100;SDS011;7127;49.372;8.166;2024-03-23T06:00:32;0.40;;;0.40;;
14100;SDS011;7127;49.372;8.166;2024-03-23T06:02:58;0.33;;;0.30;;
14100;SDS011;7127;49.372;8.166;2024-03-23T06:05:24;0.60;;;0.60;;
14100;SDS011;7127;49.372;8.166;2024-03-23T06:07:52;0.70;;;0.70;;
14100;SDS011;7127;49.372;8.166;2024-03-23T06:10:18;0.37;;;0.37;;
14100;SDS011;7127;49.372;8.166;2024-03-23T06:12:45;0.40;;;0.33;;
14100;SDS011;7127;49.372;8.166;2024-03-23T06:15:11;0.47;;;0.47;;
14100;SDS011;7127;49.372;8.166;2024-03-23T06:17:38;0.40;;;0.40;;
14100;SDS011;7127;49.372;8.166;2024-03-23T06:20:04;0.50;;;0.50;;
14100;SDS011;7127;49.372;8.166;2024-03-23T06:22:32;0.30;;;0.30;;
14100;SDS011;7127;49.372;8.166;2024-03-23T06:25:00;0.40;;;0.40;;
14100;SDS011;7127;49.372;8.166;2024-03-23T06:27:26;0.70;;;0.40;;
14100;SDS011;7127;49.372;8.166;2024-03-23T06:29:52;0.43;;;0.43;;
14100;SDS011;7127;49.372;8.166;2024-03-23T06:32:20;0.20;;;0.20;;
14100;SDS011;7127;49.372;8.166;2024-03-23T06:34:46;0.30;;;0.30;;
14100;SDS011;7127;49.372;8.166;2024-03-23T06:37:12;0.53;;;0.40;;
14100;SDS011;7127;49.372;8.166;2024-03-23T06:39:38;0.10;;;0.10;;
14100;SDS011;7127;49.372;8.166;2024-03-23T06:42:06;0.50;;;0.50;;
14100;SDS011;7127;49.372;8.166;2024-03-23T06:44:33;0.30;;;0.30;;
14100;SDS011;7127;49.372;8.166;2024-03-23T06:47:00;0.10;;;0.10;;
14100;SDS011;7127;49.372;8.166;2024-03-23T06:49:25;0.50;;;0.50;;
14100;SDS011;7127;49.372;8.166;2024-03-23T06:51:52;0.40;;;0.40;;
14100;SDS011;7127;49.372;8.166;2024-03-23T06:54:18;0.27;;;0.27;;
14100;SDS011;7127;49.372;8.166;2024-03-23T06:56:45;0.80;;;0.80;;
14100;SDS011;7127;49.372;8.166;2024-03-23T06:59:12;0.47;;;0.47;;
14100;SDS011;7127;49.372;8.166;2024-03-23T07:01:39;1.00;;;0.87;;
14100;SDS011;7127;49.372;8.166;2024-03-23T07:04:05;0.70;;;0.70;;
14100;SDS011;7127;49.372;8.166;2024-03-23T07:06:32;0.40;;;0.40;;
14100;SDS011;7127;49.372;8.166;2024-03-23T07:08:57;0.40;;;0.40;;
14100;SDS011;7127;49.372;8.166;2024-03-23T07:11:24;0.30;;;0.30;;
14100;SDS011;7127;49.372;8.166;2024-03-23T07:13:51;0.60;;;0.57;;
14100;SDS011;7127;49.372;8.166;2024-03-23T07:16:21;1.13;;;0.60;;
14100;SDS011;7127;49.372;8.166;2024-03-23T07:18:46;1.53;;;0.73;;
14100;SDS011;7127;49.372;8.166;2024-03-23T07:21:14;2.70;;;0.73;;
14100;SDS011;7127;49.372;8.166;2024-03-23T07:23:41;1.77;;;0.67;;
14100;SDS011;7127;49.372;8.166;2024-03-23T07:26:09;2.27;;;0.97;;
14100;SDS011;7127;49.372;8.166;2024-03-23T07:28:35;1.43;;;0.87;;
14100;SDS011;7127;49.372;8.166;2024-03-23T07:31:03;1.33;;;0.73;;
14100;SDS011;7127;49.372;8.166;2024-03-23T07:33:30;2.57;;;1.10;;
14100;SDS011;7127;49.372;8.166;2024-03-23T07:35:58;2.07;;;0.70;;
14100;SDS011;7127;49.372;8.166;2024-03-23T07:38:25;1.80;;;1.30;;
14100;SDS011;7127;49.372;8.166;2024-03-23T07:40:56;1.93;;;1.00;;
14100;SDS011;7127;49.372;8.166;2024-03-23T07:43:29;1.43;;;1.07;;
14100;SDS011;7127;49.372;8.166;2024-03-23T07:45:54;1.77;;;1.00;;
14100;SDS011;7127;49.372;8.166;2024-03-23T07:48:21;2.43;;;1.00;;
14100;SDS011;7127;49.372;8.166;2024-03-23T07:50:56;3.13;;;1.10;;
14100;SDS011;7127;49.372;8.166;2024-03-23T07:53:24;1.37;;;1.03;;
14100;SDS011;7127;49.372;8.166;2024-03-23T07:55:52;3.57;;;1.50;;
14100;SDS011;7127;49.372;8.166;2024-03-23T07:58:20;1.60;;;1.07;;
14100;SDS011;7127;49.372;8.166;2024-03-23T08:00:46;1.40;;;0.90;;
14100;SDS011;7127;49.372;8.166;2024-03-23T08:03:13;1.40;;;0.80;;
14100;SDS011;7127;49.372;8.166;2024-03-23T08:05:38;2.60;;;1.43;;
14100;SDS011;7127;49.372;8.166;2024-03-23T08:08:06;1.67;;;1.20;;
14100;SDS011;7127;49.372;8.166;2024-03-23T08:10:32;3.33;;;1.57;;
14100;SDS011;7127;49.372;8.166;2024-03-23T08:12:59;3.20;;;1.37;;
14100;SDS011;7127;49.372;8.166;2024-03-23T08:15:25;3.13;;;1.30;;
14100;SDS011;7127;49.372;8.166;2024-03-23T08:17:52;2.57;;;1.20;;
14100;SDS011;7127;49.372;8.166;2024-03-23T08:20:17;2.17;;;1.00;;
14100;SDS011;7127;49.372;8.166;2024-03-23T08:22:44;2.30;;;1.20;;
14100;SDS011;7127;49.372;8.166;2024-03-23T08:25:11;2.50;;;1.20;;
14100;SDS011;7127;49.372;8.166;2024-03-23T08:27:38;2.97;;;1.50;;
14100;SDS011;7127;49.372;8.166;2024-03-23T08:30:04;2.90;;;1.50;;
14100;SDS011;7127;49.372;8.166;2024-03-23T08:32:32;5.13;;;1.53;;
14100;SDS011;7127;49.372;8.166;2024-03-23T08:34:58;2.70;;;1.30;;
14100;SDS011;7127;49.372;8.166;2024-03-23T08:37:24;4.67;;;1.60;;
14100;SDS011;7127;49.372;8.166;2024-03-23T08:39:50;3.97;;;1.40;;
14100;SDS011;7127;49.372;8.166;2024-03-23T08:42:19;4.53;;;1.40;;
14100;SDS011;7127;49.372;8.166;2024-03-23T08:44:46;2.60;;;1.40;;
14100;SDS011;7127;49.372;8.166;2024-03-23T08:47:14;2.67;;;1.40;;
14100;SDS011;7127;49.372;8.166;2024-03-23T08:49:40;1.97;;;1.30;;
14100;SDS011;7127;49.372;8.166;2024-03-23T08:52:11;3.67;;;1.30;;
14100;SDS011;7127;49.372;8.166;2024-03-23T08:54:36;2.17;;;1.40;;
14100;SDS011;7127;49.372;8.166;2024-03-23T08:57:03;4.43;;;1.70;;
14100;SDS011;7127;49.372;8.166;2024-03-23T08:59:30;3.40;;;1.60;;
14100;SDS011;7127;49.372;8.166;2024-03-23T09:01:57;4.63;;;1.80;;
14100;SDS011;7127;49.372;8.166;2024-03-23T09:04:24;2.90;;;1.50;;
14100;SDS011;7127;49.372;8.166;2024-03-23T09:06:50;3.50;;;2.00;;
14100;SDS011;7127;49.372;8.166;2024-03-23T09:09:16;3.33;;;2.00;;
14100;SDS011;7127;49.372;8.166;2024-03-23T09:11:42;3.63;;;1.60;;
14100;SDS011;7127;49.372;8.166;2024-03-23T09:14:09;4.67;;;1.87;;
14100;SDS011;7127;49.372;8.166;2024-03-23T09:16:36;3.43;;;1.70;;
14100;SDS011;7127;49.372;8.166;2024-03-23T09:19:03;4.93;;;1.93;;
14100;SDS011;7127;49.372;8.166;2024-03-23T09:21:29;4.80;;;1.83;;
14100;SDS011;7127;49.372;8.166;2024-03-23T09:23:55;3.53;;;1.80;;
14100;SDS011;7127;49.372;8.166;2024-03-23T09:26:21;2.47;;;1.40;;
14100;SDS011;7127;49.372;8.166;2024-03-23T09:28:48;3.77;;;2.07;;
14100;SDS011;7127;49.372;8.166;2024-03-23T09:31:14;5.67;;;2.67;;
14100;SDS011;7127;49.372;8.166;2024-03-23T09:33:42;3.30;;;1.73;;
14100;SDS011;7127;49.372;8.166;2024-03-23T09:36:08;3.33;;;1.73;;
14100;SDS011;7127;49.372;8.166;2024-03-23T09:38:35;4.93;;;1.50;;
14100;SDS011;7127;49.372;8.166;2024-03-23T09:41:06;3.23;;;1.60;;
14100;SDS011;7127;49.372;8.166;2024-03-23T09:43:34;3.73;;;1.67;;
14100;SDS011;7127;49.372;8.166;2024-03-23T09:46:00;2.87;;;1.57;;
14100;SDS011;7127;49.372;8.166;2024-03-23T09:48:27;3.20;;;1.20;;
14100;SDS011;7127;49.372;8.166;2024-03-23T09:50:55;5.10;;;1.90;;
14100;SDS011;7127;49.372;8.166;2024-03-23T09:53:22;4.87;;;2.00;;
14100;SDS011;7127;49.372;8.166;2024-03-23T09:55:48;3.50;;;1.93;;
14100;SDS011;7127;49.372;8.166;2024-03-23T09:58:16;6.13;;;1.77;;
14100;SDS011;7127;49.372;8.166;2024-03-23T10:00:42;2.73;;;1.83;;
14100;SDS011;7127;49.372;8.166;2024-03-23T10:03:09;2.77;;;1.60;;
14100;SDS011;7127;49.372;8.166;2024-03-23T10:05:36;3.23;;;1.30;;
14100;SDS011;7127;49.372;8.166;2024-03-23T10:08:16;4.10;;;1.50;;
14100;SDS011;7127;49.372;8.166;2024-03-23T10:10:43;2.70;;;1.60;;
14100;SDS011;7127;49.372;8.166;2024-03-23T10:13:11;3.17;;;1.30;;
14100;SDS011;7127;49.372;8.166;2024-03-23T10:15:50;4.93;;;1.83;;
14100;SDS011;7127;49.372;8.166;2024-03-23T10:18:21;3.60;;;1.80;;
14100;SDS011;7127;49.372;8.166;2024-03-23T10:20:50;3.37;;;1.60;;
14100;SDS011;7127;49.372;8.166;2024-03-23T10:23:19;3.30;;;1.40;;
14100;SDS011;7127;49.372;8.166;2024-03-23T10:25:47;2.17;;;1.20;;
14100;SDS011;7127;49.372;8.166;2024-03-23T10:28:14;1.60;;;1.00;;
14100;SDS011;7127;49.372;8.166;2024-03-23T10:30:40;3.40;;;2.30;;
14100;SDS011;7127;49.372;8.166;2024-03-23T10:33:07;2.80;;;1.50;;
14100;SDS011;7127;49.372;8.166;2024-03-23T10:35:33;3.87;;;1.60;;
14100;SDS011;7127;49.372;8.166;2024-03-23T10:38:00;3.13;;;1.20;;
14100;SDS011;7127;49.372;8.166;2024-03-23T10:40:28;2.80;;;1.20;;
14100;SDS011;7127;49.372;8.166;2024-03-23T10:42:56;1.97;;;1.40;;
14100;SDS011;7127;49.372;8.166;2024-03-23T10:45:23;3.43;;;1.40;;
14100;SDS011;7127;49.372;8.166;2024-03-23T10:47:50;2.90;;;1.30;;
14100;SDS011;7127;49.372;8.166;2024-03-23T10:50:17;2.10;;;1.03;;
14100;SDS011;7127;49.372;8.166;2024-03-23T10:52:45;3.47;;;1.50;;
14100;SDS011;7127;49.372;8.166;2024-03-23T10:55:12;1.77;;;1.10;;
14100;SDS011;7127;49.372;8.166;2024-03-23T10:57:44;3.00;;;1.20;;
14100;SDS011;7127;49.372;8.166;2024-03-23T11:00:13;3.90;;;1.33;;
14100;SDS011;7127;49.372;8.166;2024-03-23T11:02:41;3.67;;;1.67;;
14100;SDS011;7127;49.372;8.166;2024-03-23T11:07:56;3.30;;;1.50;;
14100;SDS011;7127;49.372;8.166;2024-03-23T11:10:26;3.63;;;1.70;;
14100;SDS011;7127;49.372;8.166;2024-03-23T11:12:56;2.13;;;1.37;;
14100;SDS011;7127;49.372;8.166;2024-03-23T11:15:22;2.37;;;1.30;;
14100;SDS011;7127;49.372;8.166;2024-03-23T11:18:02;2.33;;;1.60;;
14100;SDS011;7127;49.372;8.166;2024-03-23T11:20:32;2.67;;;1.60;;
14100;SDS011;7127;49.372;8.166;2024-03-23T11:22:59;3.83;;;2.20;;
14100;SDS011;7127;49.372;8.166;2024-03-23T11:25:26;2.40;;;1.50;;
14100;SDS011;7127;49.372;8.166;2024-03-23T11:27:54;3.20;;;1.60;;
14100;SDS011;7127;49.372;8.166;2024-03-23T11:30:23;3.60;;;1.30;;
14100;SDS011;7127;49.372;8.166;2024-03-23T11:32:51;3.93;;;1.53;;
14100;SDS011;7127;49.372;8.166;2024-03-23T11:35:25;2.23;;;1.43;;
14100;SDS011;7127;49.372;8.166;2024-03-23T11:38:03;2.77;;;1.13;;
14100;SDS011;7127;49.372;8.166;2024-03-23T11:40:29;4.87;;;1.50;;
14100;SDS011;7127;49.372;8.166;2024-03-23T11:42:59;4.87;;;1.57;;
14100;SDS011;7127;49.372;8.166;2024-03-23T11:45:26;1.50;;;0.90;;
14100;SDS011;7127;49.372;8.166;2024-03-23T11:48:04;1.40;;;0.90;;
14100;SDS011;7127;49.372;8.166;2024-03-23T11:50:31;1.13;;;0.80;;
14100;SDS011;7127;49.372;8.166;2024-03-23T11:53:06;1.50;;;1.10;;
14100;SDS011;7127;49.372;8.166;2024-03-23T11:55:45;1.67;;;1.10;;
14100;SDS011;7127;49.372;8.166;2024-03-23T11:58:14;1.40;;;1.03;;
14100;SDS011;7127;49.372;8.166;2024-03-23T12:00:40;2.67;;;1.20;;
14100;SDS011;7127;49.372;8.166;2024-03-23T12:03:07;2.30;;;0.70;;
14100;SDS011;7127;49.372;8.166;2024-03-23T12:05:35;1.17;;;0.70;;
14100;SDS011;7127;49.372;8.166;2024-03-23T12:08:16;1.30;;;0.87;;
14100;SDS011;7127;49.372;8.166;2024-03-23T12:10:47;1.60;;;0.97;;
14100;SDS011;7127;49.372;8.166;2024-03-23T12:13:17;1.13;;;0.90;;
14100;SDS011;7127;49.372;8.166;2024-03-23T12:15:44;1.63;;;0.80;;
14100;SDS011;7127;49.372;8.166;2024-03-23T12:18:12;1.20;;;0.70;;
14100;SDS011;7127;49.372;8.166;2024-03-23T12:20:38;2.03;;;0.93;;
14100;SDS011;7127;49.372;8.166;2024-03-23T12:23:09;1.27;;;0.80;;
14100;SDS011;7127;49.372;8.166;2024-03-23T12:25:36;1.37;;;0.83;;
14100;SDS011;7127;49.372;8.166;2024-03-23T12:28:04;3.20;;;0.97;;
14100;SDS011;7127;49.372;8.166;2024-03-23T12:30:32;1.37;;;0.70;;
14100;SDS011;7127;49.372;8.166;2024-03-23T12:33:05;2.00;;;0.97;;
14100;SDS011;7127;49.372;8.166;2024-03-23T12:35:31;4.07;;;1.47;;
14100;SDS011;7127;49.372;8.166;2024-03-23T12:37:58;1.73;;;1.10;;
14100;SDS011;7127;49.372;8.166;2024-03-23T12:40:24;1.10;;;0.70;;
14100;SDS011;7127;49.372;8.166;2024-03-23T12:42:51;1.13;;;0.40;;
14100;SDS011;7127;49.372;8.166;2024-03-23T12:45:17;1.77;;;0.63;;
14100;SDS011;7127;49.372;8.166;2024-03-23T12:47:45;0.87;;;0.50;;
14100;SDS011;7127;49.372;8.166;2024-03-23T12:50:11;0.90;;;0.50;;
14100;SDS011;7127;49.372;8.166;2024-03-23T12:52:38;0.60;;;0.30;;
14100;SDS011;7127;49.372;8.166;2024-03-23T12:55:04;1.77;;;0.93;;
14100;SDS011;7127;49.372;8.166;2024-03-23T12:57:31;0.97;;;0.60;;
14100;SDS011;7127;49.372;8.166;2024-03-23T12:59:57;1.73;;;0.47;;
14100;SDS011;7127;49.372;8.166;2024-03-23T13:02:24;1.27;;;0.50;;
14100;SDS011;7127;49.372;8.166;2024-03-23T13:04:51;0.47;;;0.30;;
14100;SDS011;7127;49.372;8.166;2024-03-23T13:07:19;0.60;;;0.50;;
14100;SDS011;7127;49.372;8.166;2024-03-23T13:09:46;1.77;;;0.60;;
14100;SDS011;7127;49.372;8.166;2024-03-23T13:12:13;0.83;;;0.40;;
14100;SDS011;7127;49.372;8.166;2024-03-23T13:14:39;1.27;;;0.70;;
14100;SDS011;7127;49.372;8.166;2024-03-23T13:17:06;1.33;;;0.50;;
14100;SDS011;7127;49.372;8.166;2024-03-23T13:19:32;1.90;;;0.80;;
14100;SDS011;7127;49.372;8.166;2024-03-23T13:22:00;0.83;;;0.40;;
14100;SDS011;7127;49.372;8.166;2024-03-23T13:24:27;0.80;;;0.57;;
14100;SDS011;7127;49.372;8.166;2024-03-23T13:26:54;0.80;;;0.50;;
14100;SDS011;7127;49.372;8.166;2024-03-23T13:29:21;1.37;;;0.80;;
14100;SDS011;7127;49.372;8.166;2024-03-23T13:31:49;5.77;;;0.90;;
14100;SDS011;7127;49.372;8.166;2024-03-23T13:34:15;1.53;;;0.50;;
14100;SDS011;7127;49.372;8.166;2024-03-23T13:36:43;1.30;;;0.57;;
14100;SDS011;7127;49.372;8.166;2024-03-23T13:39:11;1.33;;;0.70;;
14100;SDS011;7127;49.372;8.166;2024-03-23T13:41:38;2.07;;;0.70;;
14100;SDS011;7127;49.372;8.166;2024-03-23T13:44:04;0.37;;;0.37;;
14100;SDS011;7127;49.372;8.166;2024-03-23T13:46:31;1.30;;;1.20;;
14100;SDS011;7127;49.372;8.166;2024-03-23T13:48:57;1.70;;;0.97;;
14100;SDS011;7127;49.372;8.166;2024-03-23T13:51:24;1.20;;;0.60;;
14100;SDS011;7127;49.372;8.166;2024-03-23T13:53:52;1.87;;;0.90;;
14100;SDS011;7127;49.372;8.166;2024-03-23T13:56:20;2.47;;;0.87;;
14100;SDS011;7127;49.372;8.166;2024-03-23T13:58:46;0.93;;;0.57;;
14100;SDS011;7127;49.372;8.166;2024-03-23T14:01:13;1.63;;;0.73;;
14100;SDS011;7127;49.372;8.166;2024-03-23T14:03:39;1.07;;;0.57;;
14100;SDS011;7127;49.372;8.166;2024-03-23T14:06:06;1.43;;;1.00;;
14100;SDS011;7127;49.372;8.166;2024-03-23T14:08:33;1.23;;;0.50;;
14100;SDS011;7127;49.372;8.166;2024-03-23T14:11:01;0.57;;;0.43;;
14100;SDS011;7127;49.372;8.166;2024-03-23T14:13:30;0.97;;;0.70;;
14100;SDS011;7127;49.372;8.166;2024-03-23T14:15:57;0.93;;;0.43;;
14100;SDS011;7127;49.372;8.166;2024-03-23T14:18:23;2.13;;;0.40;;
14100;SDS011;7127;49.372;8.166;2024-03-23T14:20:51;0.97;;;0.30;;
14100;SDS011;7127;49.372;8.166;2024-03-23T14:23:18;1.63;;;0.60;;
14100;SDS011;7127;49.372;8.166;2024-03-23T14:25:45;2.67;;;0.97;;
14100;SDS011;7127;49.372;8.166;2024-03-23T14:28:10;0.70;;;0.57;;
14100;SDS011;7127;49.372;8.166;2024-03-23T14:30:42;1.53;;;0.60;;
14100;SDS011;7127;49.372;8.166;2024-03-23T14:33:08;0.90;;;0.60;;
14100;SDS011;7127;49.372;8.166;2024-03-23T14:35:35;1.20;;;0.60;;
14100;SDS011;7127;49.372;8.166;2024-03-23T14:38:01;1.53;;;1.00;;
14100;SDS011;7127;49.372;8.166;2024-03-23T14:40:28;1.17;;;0.70;;
14100;SDS011;7127;49.372;8.166;2024-03-23T14:42:54;1.97;;;0.70;;
14100;SDS011;7127;49.372;8.166;2024-03-23T14:45:21;1.47;;;0.53;;
14100;SDS011;7127;49.372;8.166;2024-03-23T14:47:50;0.83;;;0.60;;
14100;SDS011;7127;49.372;8.166;2024-03-23T14:50:17;2.53;;;0.80;;
14100;SDS011;7127;49.372;8.166;2024-03-23T14:52:43;1.27;;;0.50;;
14100;SDS011;7127;49.372;8.166;2024-03-23T14:55:11;1.10;;;0.50;;
14100;SDS011;7127;49.372;8.166;2024-03-23T14:57:37;1.57;;;0.70;;
14100;SDS011;7127;49.372;8.166;2024-03-23T15:00:06;1.00;;;0.40;;
14100;SDS011;7127;49.372;8.166;2024-03-23T15:02:33;0.93;;;0.50;;
14100;SDS011;7127;49.372;8.166;2024-03-23T15:05:01;1.43;;;0.70;;
14100;SDS011;7127;49.372;8.166;2024-03-23T15:07:28;0.60;;;0.57;;
14100;SDS011;7127;49.372;8.166;2024-03-23T15:09:55;1.70;;;0.60;;
14100;SDS011;7127;49.372;8.166;2024-03-23T15:12:21;1.10;;;0.60;;
14100;SDS011;7127;49.372;8.166;2024-03-23T15:14:48;2.00;;;0.60;;
14100;SDS011;7127;49.372;8.166;2024-03-23T15:17:13;1.13;;;0.60;;
14100;SDS011;7127;49.372;8.166;2024-03-23T15:19:40;1.70;;;0.87;;
14100;SDS011;7127;49.372;8.166;2024-03-23T15:22:08;0.63;;;0.53;;
14100;SDS011;7127;49.372;8.166;2024-03-23T15:24:36;1.20;;;0.50;;
14100;SDS011;7127;49.372;8.166;2024-03-23T15:27:01;0.73;;;0.43;;
14100;SDS011;7127;49.372;8.166;2024-03-23T15:29:28;0.33;;;0.20;;
14100;SDS011;7127;49.372;8.166;2024-03-23T15:31:55;0.60;;;0.30;;
14100;SDS011;7127;49.372;8.166;2024-03-23T15:34:21;0.20;;;0.20;;
14100;SDS011;7127;49.372;8.166;2024-03-23T15:36:47;0.20;;;0.20;;
14100;SDS011;7127;49.372;8.166;2024-03-23T15:39:16;0.83;;;0.30;;
14100;SDS011;7127;49.372;8.166;2024-03-23T15:41:43;0.30;;;0.20;;
14100;SDS011;7127;49.372;8.166;2024-03-23T15:44:11;0.43;;;0.30;;
14100;SDS011;7127;49.372;8.166;2024-03-23T15:46:37;0.60;;;0.40;;
14100;SDS011;7127;49.372;8.166;2024-03-23T15:49:04;1.60;;;0.90;;
14100;SDS011;7127;49.372;8.166;2024-03-23T15:51:29;0.57;;;0.57;;
14100;SDS011;7127;49.372;8.166;2024-03-23T15:53:58;0.53;;;0.40;;
14100;SDS011;7127;49.372;8.166;2024-03-23T15:56:25;0.50;;;0.30;;